sensor_id;sensor_type;location;lat;lon;timestamp;pressure;altitude;pressure_sealevel;temperature;humidity
13593;BME280;6867;50.998;4.250;2023-04-25T00:00:35;100756.03;;;11.26;64.38
13593;BME280;6867;50.998;4.250;2023-04-25T00:03:02;100755.03;;;11.13;64.84
13593;BME280;6867;50.998;4.250;2023-04-25T00:05:32;100806.75;;;11.02;65.53
13593;BME280;6867;50.998;4.250;2023-04-25T00:07:58;100811.72;;;10.92;65.83
13593;BME280;6867;50.998;4.250;2023-04-25T00:10:25;100818.75;;;10.86;66.91
13593;BME280;6867;50.998;4.250;2023-04-25T00:12:52;100811.06;;;11.03;66.18
13593;BME280;6867;50.998;4.250;2023-04-25T00:15:19;100799.94;;;11.00;66.29
13593;BME280;6867;50.998;4.250;2023-04-25T00:17:45;100797.03;;;10.94;65.73
13593;BME280;6867;50.998;4.250;2023-04-25T00:20:12;100802.63;;;11.00;65.83
13593;BME280;6867;50.998;4.250;2023-04-25T00:22:41;100797.25;;;11.00;65.82
13593;BME280;6867;50.998;4.250;2023-04-25T00:25:07;100800.34;;;10.90;65.57
13593;BME280;6867;50.998;4.250;2023-04-25T00:27:34;100806.75;;;10.95;65.91
13593;BME280;6867;50.998;4.250;2023-04-25T00:30:02;100795.56;;;11.05;65.57
13593;BME280;6867;50.998;4.250;2023-04-25T00:32:29;100826.81;;;10.80;67.00
13593;BME280;6867;50.998;4.250;2023-04-25T00:34:55;100814.19;;;10.93;66.41
13593;BME280;6867;50.998;4.250;2023-04-25T00:37:23;100819.78;;;10.85;66.21
13593;BME280;6867;50.998;4.250;2023-04-25T00:39:51;100830.53;;;10.85;66.46
13593;BME280;6867;50.998;4.250;2023-04-25T00:42:19;100826.41;;;10.89;66.26
13593;BME280;6867;50.998;4.250;2023-04-25T00:44:46;100825.56;;;11.02;65.90
13593;BME280;6867;50.998;4.250;2023-04-25T00:47:15;100815.44;;;11.04;66.22
13593;BME280;6867;50.998;4.250;2023-04-25T00:49:41;100807.38;;;11.04;66.11
13593;BME280;6867;50.998;4.250;2023-04-25T00:52:08;100804.06;;;10.95;66.13
13593;BME280;6867;50.998;4.250;2023-04-25T00:54:35;100801.38;;;10.89;66.03
13593;BME280;6867;50.998;4.250;2023-04-25T00:57:04;100806.53;;;10.90;66.09
13593;BME280;6867;50.998;4.250;2023-04-25T00:59:30;100805.28;;;11.06;65.32
13593;BME280;6867;50.998;4.250;2023-04-25T01:01:58;100792.03;;;11.18;65.22
13593;BME280;6867;50.998;4.250;2023-04-25T01:04:26;100782.53;;;11.09;64.91
13593;BME280;6867;50.998;4.250;2023-04-25T01:06:53;100783.19;;;11.04;65.49
13593;BME280;6867;50.998;4.250;2023-04-25T01:09:20;100785.69;;;10.79;65.39
13593;BME280;6867;50.998;4.250;2023-04-25T01:11:48;100812.38;;;10.67;65.58
13593;BME280;6867;50.998;4.250;2023-04-25T01:14:16;100811.09;;;10.70;66.10
13593;BME280;6867;50.998;4.250;2023-04-25T01:16:43;100820.66;;;10.66;66.65
13593;BME280;6867;50.998;4.250;2023-04-25T01:19:10;100832.41;;;10.65;66.51
13593;BME280;6867;50.998;4.250;2023-04-25T01:21:39;100838.00;;;10.63;66.62
13593;BME280;6867;50.998;4.250;2023-04-25T01:24:06;100834.69;;;10.68;66.63
13593;BME280;6867;50.998;4.250;2023-04-25T01:26:33;100818.56;;;10.55;66.33
13593;BME280;6867;50.998;4.250;2023-04-25T01:29:01;100841.69;;;10.69;66.72
13593;BME280;6867;50.998;4.250;2023-04-25T01:31:28;100846.47;;;10.67;66.94
13593;BME280;6867;50.998;4.250;2023-04-25T01:33:55;100848.50;;;10.65;67.62
13593;BME280;6867;50.998;4.250;2023-04-25T01:36:22;100844.38;;;10.56;67.38
13593;BME280;6867;50.998;4.250;2023-04-25T01:38:50;100862.56;;;10.47;67.59
13593;BME280;6867;50.998;4.250;2023-04-25T01:41:17;100848.72;;;10.57;66.91
13593;BME280;6867;50.998;4.250;2023-04-25T01:43:45;100859.03;;;10.33;68.00
13593;BME280;6867;50.998;4.250;2023-04-25T01:46:12;100860.28;;;10.51;67.35
13593;BME280;6867;50.998;4.250;2023-04-25T01:48:38;100858.41;;;10.44;67.51
13593;BME280;6867;50.998;4.250;2023-04-25T01:51:05;100857.22;;;10.54;67.18
13593;BME280;6867;50.998;4.250;2023-04-25T01:53:32;100873.72;;;10.51;67.92
13593;BME280;6867;50.998;4.250;2023-04-25T01:56:00;100868.97;;;10.59;68.20
13593;BME280;6867;50.998;4.250;2023-04-25T01:58:27;100867.31;;;10.45;67.97
13593;BME280;6867;50.998;4.250;2023-04-25T02:00:53;100870.00;;;10.52;68.47
13593;BME280;6867;50.998;4.250;2023-04-25T02:03:20;100882.28;;;10.13;69.41
13593;BME280;6867;50.998;4.250;2023-04-25T02:05:47;100889.94;;;10.16;68.50
13593;BME280;6867;50.998;4.250;2023-04-25T02:08:13;100893.31;;;10.25;69.21
13593;BME280;6867;50.998;4.250;2023-04-25T02:10:40;100878.84;;;10.32;68.59
13593;BME280;6867;50.998;4.250;2023-04-25T02:13:08;100876.81;;;10.41;68.31
13593;BME280;6867;50.998;4.250;2023-04-25T02:15:35;100869.34;;;10.30;68.76
13593;BME280;6867;50.998;4.250;2023-04-25T02:18:02;100872.47;;;10.33;68.72
13593;BME280;6867;50.998;4.250;2023-04-25T02:20:29;100873.06;;;10.35;68.83
13593;BME280;6867;50.998;4.250;2023-04-25T02:22:56;100869.38;;;10.43;68.65
13593;BME280;6867;50.998;4.250;2023-04-25T02:25:23;100869.16;;;10.44;68.10
13593;BME280;6867;50.998;4.250;2023-04-25T02:27:50;100884.03;;;10.40;68.06
13593;BME280;6867;50.998;4.250;2023-04-25T02:30:19;100889.50;;;10.19;69.05
13593;BME280;6867;50.998;4.250;2023-04-25T02:32:45;100889.13;;;10.22;68.98
13593;BME280;6867;50.998;4.250;2023-04-25T02:35:12;100883.81;;;10.35;68.64
13593;BME280;6867;50.998;4.250;2023-04-25T02:37:39;100887.09;;;10.31;68.77
13593;BME280;6867;50.998;4.250;2023-04-25T02:40:07;100890.63;;;10.44;68.51
13593;BME280;6867;50.998;4.250;2023-04-25T02:42:34;100893.31;;;10.25;69.54
13593;BME280;6867;50.998;4.250;2023-04-25T02:45:01;100888.78;;;10.38;68.40
13593;BME280;6867;50.998;4.250;2023-04-25T02:47:30;100887.66;;;10.19;68.68
13593;BME280;6867;50.998;4.250;2023-04-25T02:49:56;100862.06;;;10.17;68.80
13593;BME280;6867;50.998;4.250;2023-04-25T02:52:23;100863.28;;;10.08;67.99
13593;BME280;6867;50.998;4.250;2023-04-25T02:54:50;100852.72;;;10.06;68.32
13593;BME280;6867;50.998;4.250;2023-04-25T02:57:17;100832.31;;;10.12;67.35
13593;BME280;6867;50.998;4.250;2023-04-25T02:59:44;100848.19;;;10.07;67.50
13593;BME280;6867;50.998;4.250;2023-04-25T03:02:10;100852.28;;;9.96;68.20
13593;BME280;6867;50.998;4.250;2023-04-25T03:04:38;100855.59;;;9.91;67.22
13593;BME280;6867;50.998;4.250;2023-04-25T03:07:05;100850.84;;;9.93;67.67
13593;BME280;6867;50.998;4.250;2023-04-25T03:09:32;100862.50;;;9.72;68.05
13593;BME280;6867;50.998;4.250;2023-04-25T03:11:58;100866.44;;;9.77;68.28
13593;BME280;6867;50.998;4.250;2023-04-25T03:14:25;100861.75;;;9.85;67.63
13593;BME280;6867;50.998;4.250;2023-04-25T03:16:52;100877.22;;;9.90;67.73
13593;BME280;6867;50.998;4.250;2023-04-25T03:19:19;100867.16;;;9.92;68.22
13593;BME280;6867;50.998;4.250;2023-04-25T03:21:47;100880.25;;;9.67;68.30
13593;BME280;6867;50.998;4.250;2023-04-25T03:24:13;100881.38;;;9.51;68.61
13593;BME280;6867;50.998;4.250;2023-04-25T03:26:40;100877.34;;;9.68;68.04
13593;BME280;6867;50.998;4.250;2023-04-25T03:29:07;100884.56;;;9.68;69.15
13593;BME280;6867;50.998;4.250;2023-04-25T03:31:33;100882.69;;;9.62;68.67
13593;BME280;6867;50.998;4.250;2023-04-25T03:34:00;100881.88;;;9.68;69.27
13593;BME280;6867;50.998;4.250;2023-04-25T03:36:27;100876.31;;;9.63;69.34
13593;BME280;6867;50.998;4.250;2023-04-25T03:38:55;100889.56;;;9.71;69.55
13593;BME280;6867;50.998;4.250;2023-04-25T03:41:21;100882.75;;;9.75;69.12
13593;BME280;6867;50.998;4.250;2023-04-25T03:43:48;100886.06;;;9.77;68.70
13593;BME280;6867;50.998;4.250;2023-04-25T03:46:15;100883.81;;;9.81;69.24
13593;BME280;6867;50.998;4.250;2023-04-25T03:48:42;100900.22;;;9.64;68.82
13593;BME280;6867;50.998;4.250;2023-04-25T03:51:08;100901.00;;;9.52;69.21
13593;BME280;6867;50.998;4.250;2023-04-25T03:53:35;100901.03;;;9.58;69.15
13593;BME280;6867;50.998;4.250;2023-04-25T03:56:03;100890.03;;;9.46;69.65
13593;BME280;6867;50.998;4.250;2023-04-25T03:58:30;100886.84;;;9.36;69.18
13593;BME280;6867;50.998;4.250;2023-04-25T04:00:57;100872.59;;;9.29;68.72
13593;BME280;6867;50.998;4.250;2023-04-25T04:03:23;100877.97;;;9.29;68.55
13593;BME280;6867;50.998;4.250;2023-04-25T04:05:50;100864.94;;;9.61;68.50
13593;BME280;6867;50.998;4.250;2023-04-25T04:08:17;100878.75;;;9.58;68.53
13593;BME280;6867;50.998;4.250;2023-04-25T04:10:44;100880.34;;;9.52;67.92
13593;BME280;6867;50.998;4.250;2023-04-25T04:13:12;100893.75;;;9.45;68.97
13593;BME280;6867;50.998;4.250;2023-04-25T04:15:38;100881.09;;;9.33;68.06
13593;BME280;6867;50.998;4.250;2023-04-25T04:18:05;100894.63;;;9.59;67.78
13593;BME280;6867;50.998;4.250;2023-04-25T04:20:32;100891.72;;;9.54;67.59
13593;BME280;6867;50.998;4.250;2023-04-25T04:22:59;100904.09;;;9.55;67.79
13593;BME280;6867;50.998;4.250;2023-04-25T04:25:26;100877.75;;;9.24;67.65
13593;BME280;6867;50.998;4.250;2023-04-25T04:27:53;100836.06;;;9.21;65.65
13593;BME280;6867;50.998;4.250;2023-04-25T04:30:23;100825.13;;;9.23;65.50
13593;BME280;6867;50.998;4.250;2023-04-25T04:32:51;100818.50;;;9.19;65.27
13593;BME280;6867;50.998;4.250;2023-04-25T04:35:18;100809.47;;;9.27;64.90
13593;BME280;6867;50.998;4.250;2023-04-25T04:37:44;100791.00;;;9.38;64.79
13593;BME280;6867;50.998;4.250;2023-04-25T04:40:12;100794.94;;;9.42;63.64
13593;BME280;6867;50.998;4.250;2023-04-25T04:42:40;100796.34;;;9.38;63.89
13593;BME280;6867;50.998;4.250;2023-04-25T04:45:08;100805.00;;;9.40;64.07
13593;BME280;6867;50.998;4.250;2023-04-25T04:47:36;100818.41;;;9.40;64.31
13593;BME280;6867;50.998;4.250;2023-04-25T04:50:05;100806.88;;;9.40;63.72
13593;BME280;6867;50.998;4.250;2023-04-25T04:52:34;100829.56;;;9.44;64.61
13593;BME280;6867;50.998;4.250;2023-04-25T04:55:00;100823.97;;;9.39;63.96
13593;BME280;6867;50.998;4.250;2023-04-25T04:57:28;100828.13;;;9.41;64.03
13593;BME280;6867;50.998;4.250;2023-04-25T04:59:56;100831.25;;;9.52;64.11
13593;BME280;6867;50.998;4.250;2023-04-25T05:02:23;100838.38;;;9.66;64.03
13593;BME280;6867;50.998;4.250;2023-04-25T05:04:52;100843.91;;;9.64;63.74
13593;BME280;6867;50.998;4.250;2023-04-25T05:07:19;100837.78;;;9.77;63.74
13593;BME280;6867;50.998;4.250;2023-04-25T05:09:46;100839.06;;;9.88;63.65
13593;BME280;6867;50.998;4.250;2023-04-25T05:12:13;100849.78;;;9.94;63.63
13593;BME280;6867;50.998;4.250;2023-04-25T05:14:39;100827.06;;;9.90;63.14
13593;BME280;6867;50.998;4.250;2023-04-25T05:17:06;100854.72;;;9.84;62.98
13593;BME280;6867;50.998;4.250;2023-04-25T05:19:34;100857.22;;;9.92;63.11
13593;BME280;6867;50.998;4.250;2023-04-25T05:22:02;100863.84;;;9.96;63.53
13593;BME280;6867;50.998;4.250;2023-04-25T05:24:29;100834.97;;;10.05;62.27
13593;BME280;6867;50.998;4.250;2023-04-25T05:26:56;100833.75;;;10.14;62.06
13593;BME280;6867;50.998;4.250;2023-04-25T05:29:23;100829.25;;;10.28;61.55
13593;BME280;6867;50.998;4.250;2023-04-25T05:31:49;100803.66;;;10.26;61.03
13593;BME280;6867;50.998;4.250;2023-04-25T05:34:16;100788.69;;;9.83;60.84
13593;BME280;6867;50.998;4.250;2023-04-25T05:36:42;100802.19;;;10.16;60.67
13593;BME280;6867;50.998;4.250;2023-04-25T05:39:11;100821.41;;;10.27;61.17
13593;BME280;6867;50.998;4.250;2023-04-25T05:41:37;100834.16;;;10.11;61.57
13593;BME280;6867;50.998;4.250;2023-04-25T05:44:05;100850.97;;;10.33;61.22
13593;BME280;6867;50.998;4.250;2023-04-25T05:46:32;100863.97;;;10.36;61.23
13593;BME280;6867;50.998;4.250;2023-04-25T05:48:58;100859.25;;;10.52;60.76
13593;BME280;6867;50.998;4.250;2023-04-25T05:51:25;100863.16;;;10.36;61.58
13593;BME280;6867;50.998;4.250;2023-04-25T05:53:52;100863.97;;;10.36;61.50
13593;BME280;6867;50.998;4.250;2023-04-25T05:56:20;100880.13;;;10.50;61.72
13593;BME280;6867;50.998;4.250;2023-04-25T05:58:47;100858.03;;;10.67;60.77
13593;BME280;6867;50.998;4.250;2023-04-25T06:01:14;100876.44;;;10.70;60.58
13593;BME280;6867;50.998;4.250;2023-04-25T06:03:41;100878.69;;;10.73;61.03
13593;BME280;6867;50.998;4.250;2023-04-25T06:06:08;100893.16;;;10.72;61.28
13593;BME280;6867;50.998;4.250;2023-04-25T06:08:35;100892.53;;;10.77;61.02
13593;BME280;6867;50.998;4.250;2023-04-25T06:11:03;100871.69;;;10.66;60.79
13593;BME280;6867;50.998;4.250;2023-04-25T06:13:31;100872.94;;;10.83;60.68
13593;BME280;6867;50.998;4.250;2023-04-25T06:15:58;100885.94;;;11.06;60.42
13593;BME280;6867;50.998;4.250;2023-04-25T06:18:24;100870.72;;;11.65;59.12
13593;BME280;6867;50.998;4.250;2023-04-25T06:20:51;100794.50;;;11.84;57.24
13593;BME280;6867;50.998;4.250;2023-04-25T06:23:18;100768.97;;;11.93;56.42
13593;BME280;6867;50.998;4.250;2023-04-25T06:25:44;100764.09;;;12.09;56.08
13593;BME280;6867;50.998;4.250;2023-04-25T06:28:11;100763.91;;;12.04;55.77
13593;BME280;6867;50.998;4.250;2023-04-25T06:30:39;100723.34;;;11.67;55.23
13593;BME280;6867;50.998;4.250;2023-04-25T06:33:06;100730.38;;;11.68;55.05
13593;BME280;6867;50.998;4.250;2023-04-25T06:35:34;100746.13;;;11.58;55.27
13593;BME280;6867;50.998;4.250;2023-04-25T06:38:00;100765.56;;;11.15;55.82
13593;BME280;6867;50.998;4.250;2023-04-25T06:40:27;100774.63;;;11.27;55.71
13593;BME280;6867;50.998;4.250;2023-04-25T06:42:54;100807.59;;;11.61;56.03
13593;BME280;6867;50.998;4.250;2023-04-25T06:45:20;100806.94;;;11.72;55.83
13593;BME280;6867;50.998;4.250;2023-04-25T06:47:48;100781.28;;;11.69;55.24
13593;BME280;6867;50.998;4.250;2023-04-25T06:50:15;100788.34;;;11.64;55.46
13593;BME280;6867;50.998;4.250;2023-04-25T06:52:41;100769.50;;;11.64;54.83
13593;BME280;6867;50.998;4.250;2023-04-25T06:55:09;100753.03;;;11.47;54.40
13593;BME280;6867;50.998;4.250;2023-04-25T06:57:35;100767.59;;;11.19;55.23
13593;BME280;6867;50.998;4.250;2023-04-25T07:00:03;100755.97;;;11.32;54.78
13593;BME280;6867;50.998;4.250;2023-04-25T07:02:33;100783.59;;;11.59;54.38
13593;BME280;6867;50.998;4.250;2023-04-25T07:05:01;100784.31;;;11.86;54.37
13593;BME280;6867;50.998;4.250;2023-04-25T07:07:29;100780.19;;;12.47;53.56
13593;BME280;6867;50.998;4.250;2023-04-25T07:09:56;100776.06;;;12.44;53.01
13593;BME280;6867;50.998;4.250;2023-04-25T07:12:22;100770.06;;;12.17;53.57
13593;BME280;6867;50.998;4.250;2023-04-25T07:14:49;100793.47;;;12.17;54.00
13593;BME280;6867;50.998;4.250;2023-04-25T07:17:16;100787.91;;;12.37;53.43
13593;BME280;6867;50.998;4.250;2023-04-25T07:19:42;100794.63;;;12.53;53.15
13593;BME280;6867;50.998;4.250;2023-04-25T07:22:10;100777.53;;;12.40;53.11
13593;BME280;6867;50.998;4.250;2023-04-25T07:24:37;100801.91;;;12.52;53.41
13593;BME280;6867;50.998;4.250;2023-04-25T07:27:04;100814.09;;;13.05;52.92
13593;BME280;6867;50.998;4.250;2023-04-25T07:29:30;100790.34;;;13.13;52.32
13593;BME280;6867;50.998;4.250;2023-04-25T07:31:57;100736.38;;;12.33;52.10
13593;BME280;6867;50.998;4.250;2023-04-25T07:34:24;100737.13;;;12.40;51.98
13593;BME280;6867;50.998;4.250;2023-04-25T07:36:50;100789.34;;;12.89;52.03
13593;BME280;6867;50.998;4.250;2023-04-25T07:39:19;100792.34;;;13.00;52.20
13593;BME280;6867;50.998;4.250;2023-04-25T07:41:45;100777.03;;;12.75;51.99
13593;BME280;6867;50.998;4.250;2023-04-25T07:44:12;100738.28;;;12.26;51.80
13593;BME280;6867;50.998;4.250;2023-04-25T07:46:39;100822.25;;;12.48;53.08
13593;BME280;6867;50.998;4.250;2023-04-25T07:49:05;100823.31;;;12.40;52.61
13593;BME280;6867;50.998;4.250;2023-04-25T07:51:32;100810.69;;;12.41;52.77
13593;BME280;6867;50.998;4.250;2023-04-25T07:53:59;100866.19;;;12.74;53.20
13593;BME280;6867;50.998;4.250;2023-04-25T07:56:27;100854.84;;;13.15;52.99
13593;BME280;6867;50.998;4.250;2023-04-25T07:58:54;100887.44;;;13.57;52.85
13593;BME280;6867;50.998;4.250;2023-04-25T08:01:20;100783.25;;;13.86;50.23
13593;BME280;6867;50.998;4.250;2023-04-25T08:03:47;100706.13;;;13.90;48.49
13593;BME280;6867;50.998;4.250;2023-04-25T08:06:14;100731.22;;;14.32;48.35
13593;BME280;6867;50.998;4.250;2023-04-25T08:08:40;100633.06;;;13.61;47.33
13593;BME280;6867;50.998;4.250;2023-04-25T08:11:07;100629.81;;;13.71;46.52
13593;BME280;6867;50.998;4.250;2023-04-25T08:13:35;100664.25;;;13.27;47.66
13593;BME280;6867;50.998;4.250;2023-04-25T08:16:02;100626.16;;;13.77;45.69
13593;BME280;6867;50.998;4.250;2023-04-25T08:18:28;100633.59;;;13.40;46.28
13593;BME280;6867;50.998;4.250;2023-04-25T08:20:56;100611.00;;;13.64;45.94
13593;BME280;6867;50.998;4.250;2023-04-25T08:23:22;100561.03;;;13.85;44.60
13593;BME280;6867;50.998;4.250;2023-04-25T08:25:49;100582.88;;;14.19;44.02
13593;BME280;6867;50.998;4.250;2023-04-25T08:28:16;100636.75;;;14.37;44.78
13593;BME280;6867;50.998;4.250;2023-04-25T08:30:44;100643.38;;;14.30;44.93
13593;BME280;6867;50.998;4.250;2023-04-25T08:33:10;100632.06;;;13.98;44.94
13593;BME280;6867;50.998;4.250;2023-04-25T08:35:37;100512.97;;;12.99;43.94
13593;BME280;6867;50.998;4.250;2023-04-25T08:38:04;100555.91;;;12.52;45.21
13593;BME280;6867;50.998;4.250;2023-04-25T08:40:35;100606.78;;;12.60;45.65
13593;BME280;6867;50.998;4.250;2023-04-25T08:43:04;100674.13;;;12.41;47.02
13593;BME280;6867;50.998;4.250;2023-04-25T08:45:38;100708.81;;;12.06;47.81
13593;BME280;6867;50.998;4.250;2023-04-25T08:48:07;100859.72;;;12.50;49.80
13593;BME280;6867;50.998;4.250;2023-04-25T08:50:37;100869.03;;;12.22;50.53
13593;BME280;6867;50.998;4.250;2023-04-25T08:53:08;100908.63;;;12.21;51.22
13593;BME280;6867;50.998;4.250;2023-04-25T08:55:40;100927.81;;;12.32;51.45
13593;BME280;6867;50.998;4.250;2023-04-25T08:58:09;100940.31;;;12.58;51.51
13593;BME280;6867;50.998;4.250;2023-04-25T09:00:37;100916.56;;;12.41;51.48
13593;BME280;6867;50.998;4.250;2023-04-25T09:03:04;100916.16;;;13.01;50.88
13593;BME280;6867;50.998;4.250;2023-04-25T09:05:32;100920.78;;;13.44;50.42
13593;BME280;6867;50.998;4.250;2023-04-25T09:08:00;100906.66;;;14.15;49.15
13593;BME280;6867;50.998;4.250;2023-04-25T09:10:27;100817.00;;;15.02;46.56
13593;BME280;6867;50.998;4.250;2023-04-25T09:13:02;100707.50;;;14.46;44.95
13593;BME280;6867;50.998;4.250;2023-04-25T09:15:30;100770.88;;;14.62;45.87
13593;BME280;6867;50.998;4.250;2023-04-25T09:17:57;100727.78;;;14.02;45.63
13593;BME280;6867;50.998;4.250;2023-04-25T09:20:24;100744.09;;;13.65;46.30
13593;BME280;6867;50.998;4.250;2023-04-25T09:23:03;100748.19;;;13.98;45.12
13593;BME280;6867;50.998;4.250;2023-04-25T09:25:34;100770.69;;;13.80;45.79
13593;BME280;6867;50.998;4.250;2023-04-25T09:28:04;100838.00;;;14.65;45.84
13593;BME280;6867;50.998;4.250;2023-04-25T09:30:32;100752.34;;;14.24;44.95
13593;BME280;6867;50.998;4.250;2023-04-25T09:33:04;100702.78;;;14.06;44.76
13593;BME280;6867;50.998;4.250;2023-04-25T09:35:35;100689.81;;;13.85;44.28
13593;BME280;6867;50.998;4.250;2023-04-25T09:38:12;100671.22;;;13.65;44.19
13593;BME280;6867;50.998;4.250;2023-04-25T09:40:40;100691.25;;;13.09;45.03
13593;BME280;6867;50.998;4.250;2023-04-25T09:43:09;100670.34;;;13.53;44.72
13593;BME280;6867;50.998;4.250;2023-04-25T09:45:45;100721.19;;;13.98;44.35
13593;BME280;6867;50.998;4.250;2023-04-25T09:48:17;100692.63;;;14.55;43.15
13593;BME280;6867;50.998;4.250;2023-04-25T09:50:43;100598.94;;;14.37;41.52
13593;BME280;6867;50.998;4.250;2023-04-25T09:53:12;100603.63;;;15.06;40.65
13593;BME280;6867;50.998;4.250;2023-04-25T09:55:39;100602.28;;;15.65;39.65
13593;BME280;6867;50.998;4.250;2023-04-25T09:58:09;100582.97;;;16.12;38.62
13593;BME280;6867;50.998;4.250;2023-04-25T10:00:37;100588.66;;;15.60;39.58
13593;BME280;6867;50.998;4.250;2023-04-25T10:03:05;100619.75;;;15.29;40.44
13593;BME280;6867;50.998;4.250;2023-04-25T10:05:34;100557.28;;;14.10;40.87
13593;BME280;6867;50.998;4.250;2023-04-25T10:08:02;100645.00;;;14.42;41.86
13593;BME280;6867;50.998;4.250;2023-04-25T10:10:32;100685.28;;;14.79;41.82
13593;BME280;6867;50.998;4.250;2023-04-25T10:13:03;100697.34;;;15.52;40.73
13593;BME280;6867;50.998;4.250;2023-04-25T10:15:31;100767.41;;;15.77;41.77
13593;BME280;6867;50.998;4.250;2023-04-25T10:17:58;100684.28;;;15.09;41.66
13593;BME280;6867;50.998;4.250;2023-04-25T10:20:25;100660.13;;;14.79;41.02
13593;BME280;6867;50.998;4.250;2023-04-25T10:22:54;100589.69;;;14.10;40.87
13593;BME280;6867;50.998;4.250;2023-04-25T10:25:23;100767.44;;;14.43;43.49
13593;BME280;6867;50.998;4.250;2023-04-25T10:27:52;100919.81;;;14.12;46.77
13593;BME280;6867;50.998;4.250;2023-04-25T10:30:19;101011.50;;;14.07;48.06
13593;BME280;6867;50.998;4.250;2023-04-25T10:32:46;100993.72;;;13.06;49.60
13593;BME280;6867;50.998;4.250;2023-04-25T10:35:17;101106.31;;;12.72;52.18
13593;BME280;6867;50.998;4.250;2023-04-25T10:38:00;101160.75;;;11.96;54.31
13593;BME280;6867;50.998;4.250;2023-04-25T10:40:29;101178.50;;;11.77;55.75
13593;BME280;6867;50.998;4.250;2023-04-25T10:46:18;101097.59;;;12.70;52.51
13593;BME280;6867;50.998;4.250;2023-04-25T10:48:47;101036.31;;;12.59;51.19
13593;BME280;6867;50.998;4.250;2023-04-25T10:51:22;101018.34;;;12.78;50.80
13593;BME280;6867;50.998;4.250;2023-04-25T10:54:00;101084.13;;;13.97;50.48
13593;BME280;6867;50.998;4.250;2023-04-25T10:56:28;101010.22;;;13.91;48.95
13593;BME280;6867;50.998;4.250;2023-04-25T10:59:11;100962.66;;;14.27;47.87
13593;BME280;6867;50.998;4.250;2023-04-25T11:01:39;100863.44;;;13.49;46.90
13593;BME280;6867;50.998;4.250;2023-04-25T11:04:19;100927.03;;;13.81;47.12
13593;BME280;6867;50.998;4.250;2023-04-25T11:06:55;100834.66;;;13.61;46.09
13593;BME280;6867;50.998;4.250;2023-04-25T11:09:24;100885.53;;;14.42;45.45
13593;BME280;6867;50.998;4.250;2023-04-25T11:11:54;100844.16;;;14.42;45.00
13593;BME280;6867;50.998;4.250;2023-04-25T11:14:22;100871.25;;;14.54;45.23
13593;BME280;6867;50.998;4.250;2023-04-25T11:16:52;100893.06;;;14.82;45.38
13593;BME280;6867;50.998;4.250;2023-04-25T11:19:19;100867.06;;;14.81;45.09
13593;BME280;6867;50.998;4.250;2023-04-25T11:21:46;100840.41;;;14.97;44.34
13593;BME280;6867;50.998;4.250;2023-04-25T11:24:13;100833.69;;;15.11;44.06
13593;BME280;6867;50.998;4.250;2023-04-25T11:26:41;100792.41;;;14.68;43.89
13593;BME280;6867;50.998;4.250;2023-04-25T11:29:08;100842.34;;;15.60;43.06
13593;BME280;6867;50.998;4.250;2023-04-25T11:31:37;100748.81;;;15.40;41.38
13593;BME280;6867;50.998;4.250;2023-04-25T11:34:03;100679.53;;;15.28;40.72
13593;BME280;6867;50.998;4.250;2023-04-25T11:36:30;100704.16;;;16.34;39.60
13593;BME280;6867;50.998;4.250;2023-04-25T11:38:57;100670.19;;;16.09;39.33
13593;BME280;6867;50.998;4.250;2023-04-25T11:41:25;100633.84;;;15.60;38.92
13593;BME280;6867;50.998;4.250;2023-04-25T11:43:52;100596.09;;;15.53;38.40
13593;BME280;6867;50.998;4.250;2023-04-25T11:46:19;100561.88;;;15.30;38.01
13593;BME280;6867;50.998;4.250;2023-04-25T11:48:47;100509.34;;;14.69;38.25
13593;BME280;6867;50.998;4.250;2023-04-25T11:51:15;100644.31;;;15.11;39.63
13593;BME280;6867;50.998;4.250;2023-04-25T11:53:44;100483.38;;;14.68;37.20
13593;BME280;6867;50.998;4.250;2023-04-25T11:56:11;100489.63;;;15.31;36.12
13593;BME280;6867;50.998;4.250;2023-04-25T11:58:54;100593.38;;;15.53;37.79
13593;BME280;6867;50.998;4.250;2023-04-25T12:01:28;100688.84;;;15.20;39.49
13593;BME280;6867;50.998;4.250;2023-04-25T12:03:58;100711.88;;;15.34;39.76
13593;BME280;6867;50.998;4.250;2023-04-25T12:06:28;100727.69;;;15.54;40.01
13593;BME280;6867;50.998;4.250;2023-04-25T12:09:02;100803.25;;;15.56;41.00
13593;BME280;6867;50.998;4.250;2023-04-25T12:11:30;100674.09;;;15.39;39.18
13593;BME280;6867;50.998;4.250;2023-04-25T12:14:02;100670.19;;;15.47;38.79
13593;BME280;6867;50.998;4.250;2023-04-25T12:16:29;100677.78;;;14.69;39.73
13593;BME280;6867;50.998;4.250;2023-04-25T12:18:55;100773.59;;;14.62;41.80
13593;BME280;6867;50.998;4.250;2023-04-25T12:21:29;100816.06;;;14.01;43.37
13593;BME280;6867;50.998;4.250;2023-04-25T12:24:09;100722.75;;;13.45;42.37
13593;BME280;6867;50.998;4.250;2023-04-25T12:26:46;100818.50;;;13.42;43.94
13593;BME280;6867;50.998;4.250;2023-04-25T12:29:16;100820.56;;;13.59;43.32
13593;BME280;6867;50.998;4.250;2023-04-25T12:31:42;100929.06;;;13.86;44.85
13593;BME280;6867;50.998;4.250;2023-04-25T12:34:09;100806.59;;;13.80;43.32
13593;BME280;6867;50.998;4.250;2023-04-25T12:36:37;100763.91;;;13.40;42.83
13593;BME280;6867;50.998;4.250;2023-04-25T12:39:04;100686.09;;;13.56;40.87
13593;BME280;6867;50.998;4.250;2023-04-25T12:41:31;100722.47;;;13.95;41.15
13593;BME280;6867;50.998;4.250;2023-04-25T12:43:57;100764.41;;;14.63;40.78
13593;BME280;6867;50.998;4.250;2023-04-25T12:46:24;100718.28;;;15.05;39.42
13593;BME280;6867;50.998;4.250;2023-04-25T12:48:51;100651.56;;;14.70;39.02
13593;BME280;6867;50.998;4.250;2023-04-25T12:51:17;100675.50;;;15.02;38.32
13593;BME280;6867;50.998;4.250;2023-04-25T12:53:45;100642.47;;;14.88;38.55
13593;BME280;6867;50.998;4.250;2023-04-25T12:56:12;100562.88;;;14.43;38.02
13593;BME280;6867;50.998;4.250;2023-04-25T12:58:39;100782.38;;;15.16;40.37
13593;BME280;6867;50.998;4.250;2023-04-25T13:01:06;100586.84;;;14.63;37.69
13593;BME280;6867;50.998;4.250;2023-04-25T13:03:32;100698.72;;;15.55;38.02
13593;BME280;6867;50.998;4.250;2023-04-25T13:06:00;100700.47;;;15.89;37.73
13593;BME280;6867;50.998;4.250;2023-04-25T13:08:26;100687.56;;;15.51;38.51